Marshall B. Barnes — WDG2645 — position and weather

sailwx.info

Track history (hours):
 
Tides and Currents Weather Stations Pressure Air Temp Water Temp Dewpoint Dewpoint Depression Visibility Wind Speed Wind Dir Waves Ship Positions

Marshall B. Barnes

Owner: Florida Marine, LLC, Mandeville, LA. More information available from US FCC via Universal Licensing System and Coast Guard Vessel Documentation Center.

Last reported at 2018-May-21 01:00 UTC. Time now 2018-May-21 01:00 UTC.
Position N 29°58' W 093°52'.

Length 27 m; draft 2.9 m.

Type: Towing. MMSI: 367517750.

Date/timePositionNaut miles runAvg speedWind from/ knotsBaromVisibWave heightAir tempDewpointWater temp
2018-May-21 01:00N 29°58' W 093°52'0 0.0
2018-May-21 00:30N 29°58' W 093°52'1 2.9
2018-May-21 00:00N 29°59' W 093°53'3 6.9
2018-May-20 23:30N 29°60' W 093°57'3 5.0
2018-May-20 23:00N 30°01' W 093°59'0 0.7
2018-May-20 22:29N 30°01' W 093°59'2 3.3
2018-May-20 22:00N 30°01' W 094°01'2 3.6
2018-May-20 21:30N 30°03' W 094°02'2 4.0
2018-May-20 21:01N 30°04' W 094°03'1 1.8
2018-May-20 20:30N 30°05' W 094°04'0 0.1
2018-May-20 19:56N 30°05' W 094°04'0 0.0
2018-May-20 19:14N 30°05' W 094°04'0 0.0
2018-May-20 18:53N 30°05' W 094°04'0 0.0
2018-May-20 18:26N 30°05' W 094°04'0 0.0
2018-May-20 17:08N 30°05' W 094°04'0 0.0
2018-May-20 16:56N 30°05' W 094°04'0 0.0
2018-May-20 16:14N 30°05' W 094°04'0 0.0
2018-May-20 15:56N 30°05' W 094°04'0 0.0
2018-May-20 15:20N 30°05' W 094°04'0 0.0
2018-May-20 13:20N 30°05' W 094°04'0 0.0
2018-May-20 12:59N 30°05' W 094°04'0 0.0
2018-May-20 12:20N 30°05' W 094°04'0 0.0
2018-May-20 08:44N 30°05' W 094°04'0 0.0
2018-May-20 08:29N 30°05' W 094°04'0 0.0
2018-May-20 07:59N 30°05' W 094°04'0 0.0
2018-May-20 07:29N 30°05' W 094°04'0 0.0
2018-May-20 06:56N 30°05' W 094°04'0 0.0
2018-May-20 06:26N 30°05' W 094°04'0 0.0
2018-May-20 05:59N 30°05' W 094°04'0 0.0
2018-May-20 05:26N 30°05' W 094°04'0 0.0
2018-May-20 04:56N 30°05' W 094°04'0 0.0
2018-May-20 04:29N 30°05' W 094°04'0 0.0
2018-May-20 03:59N 30°05' W 094°04'0 0.0
2018-May-20 03:29N 30°05' W 094°04'0 0.0
2018-May-20 02:56N 30°05' W 094°04'0 0.0
2018-May-20 02:29N 30°05' W 094°04'0 0.0
2018-May-20 01:50N 30°05' W 094°04'0 0.0
2018-May-20 01:29N 30°05' W 094°04'0 0.0
2018-May-20 00:56N 30°05' W 094°04'0 0.0
2018-May-20 00:29N 30°05' W 094°04'0 0.0
2018-May-19 23:59N 30°05' W 094°04'0 0.0
2018-May-19 23:29N 30°05' W 094°04'0 0.0
2018-May-19 22:59N 30°05' W 094°04'0 0.0
2018-May-19 22:29N 30°05' W 094°04'0 0.0
2018-May-19 21:53N 30°05' W 094°04'0 0.0
2018-May-19 21:26N 30°05' W 094°04'0 0.0
2018-May-19 20:59N 30°05' W 094°04'0 0.0
2018-May-19 20:29N 30°05' W 094°04'0 0.0
2018-May-19 19:53N 30°05' W 094°04'0 0.0
2018-May-19 19:29N 30°05' W 094°04'0 0.0
2018-May-19 18:53N 30°05' W 094°04'0 0.0
2018-May-19 18:29N 30°05' W 094°04'0 0.0
2018-May-19 17:59N 30°05' W 094°04'0 0.0
2018-May-19 17:29N 30°05' W 094°04'0 0.0
2018-May-19 16:59N 30°05' W 094°04'0 0.0
2018-May-19 16:29N 30°05' W 094°04'0 0.0
2018-May-19 15:53N 30°05' W 094°04'0 0.0
2018-May-19 15:26N 30°05' W 094°04'0 0.0
2018-May-19 14:59N 30°05' W 094°04'0 0.0
2018-May-19 14:29N 30°05' W 094°04'0 0.0
2018-May-19 13:59N 30°05' W 094°04'0 0.0
2018-May-19 13:29N 30°05' W 094°04'0 0.0
2018-May-19 12:56N 30°05' W 094°04'0 0.0
2018-May-19 12:23N 30°05' W 094°04'0 0.0
2018-May-19 11:56N 30°05' W 094°04'0 0.0
2018-May-19 11:23N 30°05' W 094°04'0 0.0
2018-May-19 10:56N 30°05' W 094°04'0 0.0
2018-May-19 10:26N 30°05' W 094°04'0 0.0
2018-May-19 09:59N 30°05' W 094°04'0 0.4
2018-May-19 09:30N 30°05' W 094°04'2 4.8
2018-May-19 09:00N 30°03' W 094°02'2 4.8
2018-May-19 08:30N 30°01' W 094°00'1 2.4
2018-May-19 08:00N 30°01' W 093°59'0 0.0
2018-May-19 07:30N 30°01' W 093°59'0 0.2
2018-May-19 07:00N 30°01' W 093°59'0 0.4
2018-May-19 06:28N 30°01' W 093°59'0 0.0
2018-May-19 06:01N 30°01' W 093°59'0 0.0
2018-May-19 05:28N 30°01' W 093°59'0 0.0
2018-May-19 04:58N 30°01' W 093°59'0 0.0
2018-May-19 04:28N 30°01' W 093°59'0 0.0
2018-May-19 04:01N 30°01' W 093°59'0 0.0
2018-May-19 03:31N 30°01' W 093°59'0 0.0
2018-May-19 02:58N 30°01' W 093°59'0 0.0
2018-May-19 02:31N 30°01' W 093°59'0 0.0
2018-May-19 01:58N 30°01' W 093°59'0 0.0
2018-May-19 01:28N 30°01' W 093°59'0 0.0
2018-May-19 00:58N 30°01' W 093°59'0 0.0
2018-May-19 00:28N 30°01' W 093°59'0 0.0
2018-May-18 23:58N 30°01' W 093°59'0 0.0
2018-May-18 23:31N 30°01' W 093°59'0 0.0
2018-May-18 23:01N 30°01' W 093°59'0 0.0
2018-May-18 22:28N 30°01' W 093°59'0 0.0
2018-May-18 21:58N 30°01' W 093°59'0 0.0
2018-May-18 21:28N 30°01' W 093°59'0 0.0
2018-May-18 20:58N 30°01' W 093°59'0 0.0
2018-May-18 20:30N 30°01' W 093°59'0 0.0
2018-May-18 19:58N 30°01' W 093°59'0 0.0
2018-May-18 19:28N 30°01' W 093°59'0 0.0
2018-May-18 19:00N 30°01' W 093°59'0 0.0
2018-May-18 18:30N 30°01' W 093°59'0 0.0
2018-May-18 17:58N 30°01' W 093°59'0 0.0
2018-May-18 17:27N 30°01' W 093°59'0 0.0
2018-May-18 17:01N 30°01' W 093°59'0 0.0
2018-May-18 16:28N 30°01' W 093°59'0 0.0
2018-May-18 15:58N 30°01' W 093°59'0 0.0
2018-May-18 15:28N 30°01' W 093°59'0 0.0
2018-May-18 15:00N 30°01' W 093°59'0 0.7
2018-May-18 14:30N 30°01' W 093°59'0 0.0
2018-May-18 13:57N 30°01' W 093°59'0 0.3
2018-May-18 13:30N 30°01' W 093°59'0 0.3
2018-May-18 12:48N 30°01' W 093°59'0 0.0
2018-May-18 12:30N 30°01' W 093°59'0 0.0
2018-May-18 12:00N 30°01' W 093°59'0 0.0
2018-May-18 11:29N 30°01' W 093°59'0 0.0
2018-May-18 11:00N 30°01' W 093°59'0 0.0
2018-May-18 10:30N 30°01' W 093°59'0 0.0
2018-May-18 09:59N 30°01' W 093°59'0 0.0
2018-May-18 09:30N 30°01' W 093°59'0 0.0
2018-May-18 08:59N 30°01' W 093°59'0 0.0
2018-May-18 08:26N 30°01' W 093°59'0 0.0
2018-May-18 07:59N 30°01' W 093°59'0 0.0
2018-May-18 07:30N 30°01' W 093°59'0 0.0
2018-May-18 07:00N 30°01' W 093°59'0 0.0
2018-May-18 06:29N 30°01' W 093°59'0 0.0
2018-May-18 05:59N 30°01' W 093°59'0 0.0
2018-May-18 05:30N 30°01' W 093°59'0 0.0
2018-May-18 04:59N 30°01' W 093°59'0 0.0
2018-May-18 04:29N 30°01' W 093°59'0 0.0
2018-May-18 03:59N 30°01' W 093°59'0 0.0
2018-May-18 03:30N 30°01' W 093°59'0 0.0
2018-May-18 02:56N 30°01' W 093°59'0 0.0
2018-May-18 02:29N 30°01' W 093°59'0 0.0
2018-May-18 01:59N 30°01' W 093°59'0 0.0
2018-May-18 01:26N 30°01' W 093°59'0 0.0
2018-May-18 00:59N 30°01' W 093°59'0 0.0
2018-May-18 00:29N 30°01' W 093°59'0 0.0
2018-May-17 23:59N 30°01' W 093°59'0 0.0
2018-May-17 23:29N 30°01' W 093°59'0 0.0
2018-May-17 22:59N 30°01' W 093°59'0 0.0
2018-May-17 22:30N 30°01' W 093°59'0 0.0
2018-May-17 21:59N 30°01' W 093°59'0 0.0
2018-May-17 21:29N 30°01' W 093°59'0 0.0
2018-May-17 20:59N 30°01' W 093°59'0 0.0
2018-May-17 20:29N 30°01' W 093°59'0 0.8
2018-May-17 20:00N 30°01' W 093°59'0 0.0
2018-May-17 19:30N 30°01' W 093°59'0 0.0
2018-May-17 19:00N 30°01' W 093°59'0 0.8
2018-May-17 18:30N 30°01' W 093°59'0 0.0
2018-May-17 18:00N 30°01' W 093°59'0 0.0
2018-May-17 17:30N 30°01' W 093°59'0 0.0
2018-May-17 17:00N 30°01' W 093°59'0 0.0
2018-May-17 16:30N 30°01' W 093°59'0 0.0
2018-May-17 16:00N 30°01' W 093°59'0 0.0
2018-May-17 15:30N 30°01' W 093°59'0 0.0
2018-May-17 15:00N 30°01' W 093°59'0 0.0
2018-May-17 14:30N 30°01' W 093°59'0 0.0
2018-May-17 14:00N 30°01' W 093°59'0 0.0
2018-May-17 13:30N 30°01' W 093°59'0 0.0
2018-May-17 13:00N 30°01' W 093°59'0 0.0
2018-May-17 12:30N 30°01' W 093°59'0 0.0
2018-May-17 12:00N 30°01' W 093°59'0 0.0
2018-May-17 11:30N 30°01' W 093°59'0 0.0
2018-May-17 11:00N 30°01' W 093°59'0 0.0
2018-May-17 10:30N 30°01' W 093°59'0 0.0
2018-May-17 10:00N 30°01' W 093°59'0 0.0
2018-May-17 09:30N 30°01' W 093°59'0 0.0
2018-May-17 09:00N 30°01' W 093°59'0 0.0
2018-May-17 08:30N 30°01' W 093°59'0 0.0
2018-May-17 08:00N 30°01' W 093°59'0 0.0
2018-May-17 07:30N 30°01' W 093°59'0 0.0
2018-May-17 07:00N 30°01' W 093°59'0 0.0
2018-May-17 06:30N 30°01' W 093°59'0 0.0
2018-May-17 06:00N 30°01' W 093°59'0 0.0
2018-May-17 05:30N 30°01' W 093°59'0 0.0
2018-May-17 05:00N 30°01' W 093°59'0 0.0
2018-May-17 04:30N 30°01' W 093°59'0 0.0
2018-May-17 04:00N 30°01' W 093°59'0 0.0
2018-May-17 03:30N 30°01' W 093°59'0 0.0
2018-May-17 03:00N 30°01' W 093°59'0 0.0
2018-May-17 02:30N 30°01' W 093°59'0 0.0
2018-May-17 02:00N 30°01' W 093°59'0 0.0
2018-May-17 01:27N 30°01' W 093°59'0 0.0
2018-May-17 01:00N 30°01' W 093°59'0 0.0
2018-May-17 00:30N 30°01' W 093°59'0 0.0
2018-May-17 00:00N 30°01' W 093°59'0 0.0
2018-May-16 23:30N 30°01' W 093°59'0 0.0
2018-May-16 23:00N 30°01' W 093°59'0 0.0
2018-May-16 22:30N 30°01' W 093°59'0 0.0
2018-May-16 22:00N 30°01' W 093°59'0 0.0
2018-May-16 21:30N 30°01' W 093°59'0 0.0
2018-May-16 21:00N 30°01' W 093°59'0 0.0
2018-May-16 20:30N 30°01' W 093°59'0 0.0
2018-May-16 20:00N 30°01' W 093°59'0 0.0
2018-May-16 19:30N 30°01' W 093°59'0 0.0
2018-May-16 19:00N 30°01' W 093°59'0 0.0
2018-May-16 18:30N 30°01' W 093°59'0 0.0
2018-May-16 18:00N 30°01' W 093°59'0 0.0
2018-May-16 17:30N 30°01' W 093°59'0 0.0
2018-May-16 17:00N 30°01' W 093°59'0 0.0
2018-May-16 16:31N 30°01' W 093°59'0 0.0
2018-May-16 16:01N 30°01' W 093°59'0 0.0
2018-May-16 15:31N 30°01' W 093°59'0 0.0
2018-May-16 15:01N 30°01' W 093°59'0 0.0
2018-May-16 14:30N 30°01' W 093°59'0 0.0
2018-May-16 14:01N 30°01' W 093°59'0 0.0
2018-May-16 13:31N 30°01' W 093°59'0 0.0
2018-May-16 13:00N 30°01' W 093°59'0 0.0
2018-May-16 12:30N 30°01' W 093°59'0 0.6
2018-May-16 12:01N 30°01' W 093°59'0 0.1
2018-May-16 11:30N 30°01' W 093°59'0 0.0
2018-May-16 11:00N 30°01' W 093°59'0 0.0
2018-May-16 10:31N 30°01' W 093°59'0 0.0
2018-May-16 10:00N 30°01' W 093°59'0 0.0
2018-May-16 09:31N 30°01' W 093°59'0 0.0
2018-May-16 09:00N 30°01' W 093°59'0 0.0
2018-May-16 08:30N 30°01' W 093°59'0 0.0
2018-May-16 08:01N 30°01' W 093°59'0 0.0
2018-May-16 07:30N 30°01' W 093°59'0 0.0
2018-May-16 07:00N 30°01' W 093°59'0 0.0
2018-May-16 06:31N 30°01' W 093°59'0 0.0
2018-May-16 06:00N 30°01' W 093°59'0 0.0
2018-May-16 05:30N 30°01' W 093°59'0 0.0
2018-May-16 05:01N 30°01' W 093°59'0 0.0
2018-May-16 04:30N 30°01' W 093°59'0 0.0
2018-May-16 04:00N 30°01' W 093°59'0 0.0
2018-May-16 03:30N 30°01' W 093°59'0 0.0
2018-May-16 03:00N 30°01' W 093°59'0 0.0
2018-May-16 02:30N 30°01' W 093°59'0 0.0
2018-May-16 02:01N 30°01' W 093°59'0 0.0
2018-May-16 01:30N 30°01' W 093°59'0 0.0
2018-May-16 01:00N 30°01' W 093°59'0 0.0
2018-May-16 00:31N 30°01' W 093°59'0 0.0
2018-May-16 00:01N 30°01' W 093°59'0 0.0
2018-May-15 23:30N 30°01' W 093°59'0 0.0
2018-May-15 23:00N 30°01' W 093°59'0 0.0
2018-May-15 22:31N 30°01' W 093°59'0 0.0
2018-May-15 22:01N 30°01' W 093°59'0 0.0
2018-May-15 21:31N 30°01' W 093°59'0 0.0
2018-May-15 21:00N 30°01' W 093°59'0 0.0
2018-May-15 20:30N 30°01' W 093°59'0 0.0
2018-May-15 20:01N 30°01' W 093°59'0 0.0
2018-May-15 19:31N 30°01' W 093°59'0 0.0
2018-May-15 19:00N 30°01' W 093°59'0 0.0
2018-May-15 18:31N 30°01' W 093°59'0 0.0
2018-May-15 18:01N 30°01' W 093°59'0 0.0
2018-May-15 17:31N 30°01' W 093°59'0 0.0
2018-May-15 17:01N 30°01' W 093°59'0 0.0
2018-May-15 16:31N 30°01' W 093°59'0 0.0
2018-May-15 16:00N 30°01' W 093°59'0 0.0
2018-May-15 15:31N 30°01' W 093°59'0 0.0
2018-May-15 15:00N 30°01' W 093°59'0 0.0
2018-May-15 14:30N 30°01' W 093°59'0 0.0
2018-May-15 14:00N 30°01' W 093°59'0 0.0
2018-May-15 13:30N 30°01' W 093°59'0 0.0
2018-May-15 13:00N 30°01' W 093°59'0 0.0
2018-May-15 12:31N 30°01' W 093°59'0 0.0
2018-May-15 12:00N 30°01' W 093°59'0 0.0
2018-May-15 11:29N 30°01' W 093°59'2 3.8
2018-May-15 11:00N 30°00' W 093°57'4 8.0
2018-May-15 10:31N 29°59' W 093°53'2 3.4
2018-May-15 10:01N 29°57' W 093°52'0 0.4
2018-May-15 09:31N 29°58' W 093°52'1 1.4
2018-May-15 09:00N 29°57' W 093°52'2 3.9
2018-May-15 08:30N 29°59' W 093°52'3 6.4
2018-May-15 08:00N 29°59' W 093°56'3 5.8
2018-May-15 07:31N 30°01' W 093°59'3 6.1
2018-May-15 07:00N 30°02' W 094°02'2 3.5
2018-May-15 06:30N 30°04' W 094°02'1 2.4
2018-May-15 06:01N 30°04' W 094°04'0 0.0
2018-May-15 05:31N 30°04' W 094°04'0 0.0
2018-May-15 05:00N 30°04' W 094°04'0 0.1
2018-May-15 04:30N 30°05' W 094°04'0 0.0
2018-May-15 04:01N 30°05' W 094°04'0 0.0
2018-May-15 03:30N 30°05' W 094°04'0 0.0
2018-May-15 03:00N 30°05' W 094°04'0 0.0
2018-May-15 02:30N 30°05' W 094°04'0 0.0
2018-May-15 02:01N 30°05' W 094°04'0 0.0
2018-May-15 01:30N 30°05' W 094°04'0 0.0
2018-May-15 01:00N 30°05' W 094°04'0 0.0
2018-May-15 00:18N 30°05' W 094°04'0 0.0
2018-May-14 23:54N 30°05' W 094°04'0 0.0
2018-May-14 23:29N 30°05' W 094°04'0 0.0
2018-May-14 22:24N 30°05' W 094°04'0 0.0
2018-May-14 21:17N 30°05' W 094°04'0 0.0
2018-May-14 20:59N 30°05' W 094°04'0 0.0
2018-May-14 20:27N 30°05' W 094°04'0 0.0
2018-May-14 20:01N 30°05' W 094°04'0 0.0
2018-May-14 19:30N 30°05' W 094°04'0 0.0
2018-May-14 19:00N 30°05' W 094°04'0 0.0
2018-May-14 18:30N 30°05' W 094°04'0 0.0
2018-May-14 18:00N 30°05' W 094°04'0 0.0
2018-May-14 17:31N 30°05' W 094°04'0 0.0
2018-May-14 17:00N 30°05' W 094°04'0 0.0
2018-May-14 16:30N 30°05' W 094°04'0 0.0
2018-May-14 15:58N 30°05' W 094°04'0 0.0
2018-May-14 15:30N 30°05' W 094°04'0 0.0
2018-May-14 15:01N 30°05' W 094°04'0 0.0
2018-May-14 14:30N 30°05' W 094°04'0 0.0
2018-May-14 14:01N 30°05' W 094°04'0 0.1
2018-May-14 13:30N 30°04' W 094°04'0 0.9
2018-May-14 13:01N 30°04' W 094°03'3 6.6
2018-May-14 12:31N 30°01' W 094°02'2 4.0
2018-May-14 12:01N 30°01' W 093°59'0 0.2
2018-May-14 11:31N 30°01' W 093°59'2 3.5
2018-May-14 11:01N 30°00' W 093°57'4 8.9
2018-May-14 10:30N 29°59' W 093°52'2 3.4
2018-May-14 10:00N 29°58' W 093°51'1 1.8
2018-May-14 09:31N 29°59' W 093°52'3 6.3
2018-May-14 09:00N 29°59' W 093°55'3 6.5
2018-May-14 08:31N 30°01' W 093°59'3 6.7
2018-May-14 08:00N 30°02' W 094°02'3 5.2
2018-May-14 07:30N 30°05' W 094°04'0 0.0
2018-May-14 07:00N 30°04' W 094°04'0 0.0
2018-May-14 06:31N 30°04' W 094°04'0 0.0
2018-May-14 06:01N 30°04' W 094°04'0 0.0
2018-May-14 05:30N 30°04' W 094°04'0 0.0
2018-May-14 05:01N 30°04' W 094°04'0 0.0
2018-May-14 04:31N 30°04' W 094°04'0 0.0
2018-May-14 04:01N 30°04' W 094°04'0 0.0
2018-May-14 03:31N 30°04' W 094°04'0 0.0
2018-May-14 03:00N 30°04' W 094°04'0 0.0
2018-May-14 02:30N 30°04' W 094°04'0 0.0
2018-May-14 02:01N 30°04' W 094°04'0 0.0
2018-May-14 01:30N 30°04' W 094°04'0 0.0
2018-May-14 01:00N 30°04' W 094°04'0 0.0
2018-May-14 00:30N 30°04' W 094°04'0 0.0
2018-May-14 00:01N 30°04' W 094°04'0 0.0
2018-May-13 23:30N 30°04' W 094°04'0 0.0
2018-May-13 23:00N 30°04' W 094°04'0 0.0
2018-May-13 22:30N 30°04' W 094°04'0 0.0
2018-May-13 22:01N 30°04' W 094°04'0 0.0
2018-May-13 21:31N 30°04' W 094°04'0 0.0
2018-May-13 21:00N 30°04' W 094°04'0 0.0
2018-May-13 20:31N 30°04' W 094°04'0 0.1
2018-May-13 20:01N 30°05' W 094°04'2 4.9
2018-May-13 19:31N 30°03' W 094°02'3 6.0
2018-May-13 19:00N 30°01' W 093°59'3 6.4
2018-May-13 18:31N 29°59' W 093°56'4 7.1
2018-May-13 18:01N 29°59' W 093°52'2 3.1
2018-May-13 17:30N 29°57' W 093°52'0 0.0
2018-May-13 17:01N 29°57' W 093°52'0 0.2
2018-May-13 16:30N 29°57' W 093°52'2 4.8
2018-May-13 16:01N 29°55' W 093°53'3 6.2
2018-May-13 15:30N 29°53' W 093°56'3 6.1
2018-May-13 15:00N 29°50' W 093°57'3 6.0
2018-May-13 14:30N 29°48' W 094°00'3 6.4
2018-May-13 14:00N 29°46' W 094°03'3 5.9
2018-May-13 13:30N 29°44' W 094°06'3 5.9
2018-May-13 13:01N 29°42' W 094°08'3 5.6
2018-May-13 12:30N 29°41' W 094°11'2 4.3
2018-May-13 12:00N 29°40' W 094°13'3 5.7
2018-May-13 11:29N 29°39' W 094°16'3 6.1
2018-May-13 11:00N 29°38' W 094°19'4 5.5
2018-May-13 10:17N 29°36' W 094°23'24 5.0
2018-May-13 05:31N 29°23' W 094°46'1 6.0
2018-May-13 05:19N 29°22' W 094°47'8 6.7
2018-May-13 04:09N 29°29' W 094°52'1 7.4
2018-May-13 03:59N 29°30' W 094°52'3 7.1
2018-May-13 03:30N 29°33' W 094°55'3 6.4
2018-May-13 03:00N 29°36' W 094°57'3 6.8
2018-May-13 02:30N 29°39' W 094°58'3 6.8
2018-May-13 02:00N 29°42' W 094°60'3 5.5
2018-May-13 01:27N 29°44' W 095°02'3 1.1
2018-May-12 22:34N 29°46' W 095°05'0 5.8
2018-May-12 22:30N 29°46' W 095°05'1 0.1
2018-May-12 12:54N 29°46' W 095°06'0 0.0
2018-May-12 12:29N 29°46' W 095°06'  
Track history (hours):
 
Tides and Currents Weather Stations Pressure Air Temp Water Temp Dewpoint Dewpoint Depression Visibility Wind Speed Wind Dir Waves Ship Positions

Marshall B. Barnes

Owner: Florida Marine, LLC, Mandeville, LA. More information available from US FCC via Universal Licensing System and Coast Guard Vessel Documentation Center.

Last reported at 2018-May-21 01:00 UTC. Time now 2018-May-21 01:00 UTC.
Position N 29°58' W 093°52'.

Length 27 m; draft 2.9 m.

Type: Towing. MMSI: 367517750.

Date/timePositionNaut miles runAvg speedWind from/ knotsBaromVisibWave heightAir tempDewpointWater temp
2018-May-21 01:00N 29°58' W 093°52'0 0.0
2018-May-21 00:30N 29°58' W 093°52'1 2.9
2018-May-21 00:00N 29°59' W 093°53'3 6.9
2018-May-20 23:30N 29°60' W 093°57'3 5.0
2018-May-20 23:00N 30°01' W 093°59'0 0.7
2018-May-20 22:29N 30°01' W 093°59'2 3.3
2018-May-20 22:00N 30°01' W 094°01'2 3.6
2018-May-20 21:30N 30°03' W 094°02'2 4.0
2018-May-20 21:01N 30°04' W 094°03'1 1.8
2018-May-20 20:30N 30°05' W 094°04'0 0.1
2018-May-20 19:56N 30°05' W 094°04'0 0.0
2018-May-20 19:14N 30°05' W 094°04'0 0.0
2018-May-20 18:53N 30°05' W 094°04'0 0.0
2018-May-20 18:26N 30°05' W 094°04'0 0.0
2018-May-20 17:08N 30°05' W 094°04'0 0.0
2018-May-20 16:56N 30°05' W 094°04'0 0.0
2018-May-20 16:14N 30°05' W 094°04'0 0.0
2018-May-20 15:56N 30°05' W 094°04'0 0.0
2018-May-20 15:20N 30°05' W 094°04'0 0.0
2018-May-20 13:20N 30°05' W 094°04'0 0.0
2018-May-20 12:59N 30°05' W 094°04'0 0.0
2018-May-20 12:20N 30°05' W 094°04'0 0.0
2018-May-20 08:44N 30°05' W 094°04'0 0.0
2018-May-20 08:29N 30°05' W 094°04'0 0.0
2018-May-20 07:59N 30°05' W 094°04'0 0.0
2018-May-20 07:29N 30°05' W 094°04'0 0.0
2018-May-20 06:56N 30°05' W 094°04'0 0.0
2018-May-20 06:26N 30°05' W 094°04'0 0.0
2018-May-20 05:59N 30°05' W 094°04'0 0.0
2018-May-20 05:26N 30°05' W 094°04'0 0.0
2018-May-20 04:56N 30°05' W 094°04'0 0.0
2018-May-20 04:29N 30°05' W 094°04'0 0.0
2018-May-20 03:59N 30°05' W 094°04'0 0.0
2018-May-20 03:29N 30°05' W 094°04'0 0.0
2018-May-20 02:56N 30°05' W 094°04'0 0.0
2018-May-20 02:29N 30°05' W 094°04'0 0.0
2018-May-20 01:50N 30°05' W 094°04'0 0.0
2018-May-20 01:29N 30°05' W 094°04'0 0.0
2018-May-20 00:56N 30°05' W 094°04'0 0.0
2018-May-20 00:29N 30°05' W 094°04'0 0.0
2018-May-19 23:59N 30°05' W 094°04'0 0.0
2018-May-19 23:29N 30°05' W 094°04'0 0.0
2018-May-19 22:59N 30°05' W 094°04'0 0.0
2018-May-19 22:29N 30°05' W 094°04'0 0.0
2018-May-19 21:53N 30°05' W 094°04'0 0.0
2018-May-19 21:26N 30°05' W 094°04'0 0.0
2018-May-19 20:59N 30°05' W 094°04'0 0.0
2018-May-19 20:29N 30°05' W 094°04'0 0.0
2018-May-19 19:53N 30°05' W 094°04'0 0.0
2018-May-19 19:29N 30°05' W 094°04'0 0.0
2018-May-19 18:53N 30°05' W 094°04'0 0.0
2018-May-19 18:29N 30°05' W 094°04'0 0.0
2018-May-19 17:59N 30°05' W 094°04'0 0.0
2018-May-19 17:29N 30°05' W 094°04'0 0.0
2018-May-19 16:59N 30°05' W 094°04'0 0.0
2018-May-19 16:29N 30°05' W 094°04'0 0.0
2018-May-19 15:53N 30°05' W 094°04'0 0.0
2018-May-19 15:26N 30°05' W 094°04'0 0.0
2018-May-19 14:59N 30°05' W 094°04'0 0.0
2018-May-19 14:29N 30°05' W 094°04'0 0.0
2018-May-19 13:59N 30°05' W 094°04'0 0.0
2018-May-19 13:29N 30°05' W 094°04'0 0.0
2018-May-19 12:56N 30°05' W 094°04'0 0.0
2018-May-19 12:23N 30°05' W 094°04'0 0.0
2018-May-19 11:56N 30°05' W 094°04'0 0.0
2018-May-19 11:23N 30°05' W 094°04'0 0.0
2018-May-19 10:56N 30°05' W 094°04'0 0.0
2018-May-19 10:26N 30°05' W 094°04'0 0.0
2018-May-19 09:59N 30°05' W 094°04'0 0.4
2018-May-19 09:30N 30°05' W 094°04'2 4.8
2018-May-19 09:00N 30°03' W 094°02'2 4.8
2018-May-19 08:30N 30°01' W 094°00'1 2.4
2018-May-19 08:00N 30°01' W 093°59'0 0.0
2018-May-19 07:30N 30°01' W 093°59'0 0.2
2018-May-19 07:00N 30°01' W 093°59'0 0.4
2018-May-19 06:28N 30°01' W 093°59'0 0.0
2018-May-19 06:01N 30°01' W 093°59'0 0.0
2018-May-19 05:28N 30°01' W 093°59'0 0.0
2018-May-19 04:58N 30°01' W 093°59'0 0.0
2018-May-19 04:28N 30°01' W 093°59'0 0.0
2018-May-19 04:01N 30°01' W 093°59'0 0.0
2018-May-19 03:31N 30°01' W 093°59'0 0.0
2018-May-19 02:58N 30°01' W 093°59'0 0.0
2018-May-19 02:31N 30°01' W 093°59'0 0.0
2018-May-19 01:58N 30°01' W 093°59'0 0.0
2018-May-19 01:28N 30°01' W 093°59'0 0.0
2018-May-19 00:58N 30°01' W 093°59'0 0.0
2018-May-19 00:28N 30°01' W 093°59'0 0.0
2018-May-18 23:58N 30°01' W 093°59'0 0.0
2018-May-18 23:31N 30°01' W 093°59'0 0.0
2018-May-18 23:01N 30°01' W 093°59'0 0.0
2018-May-18 22:28N 30°01' W 093°59'0 0.0
2018-May-18 21:58N 30°01' W 093°59'0 0.0
2018-May-18 21:28N 30°01' W 093°59'0 0.0
2018-May-18 20:58N 30°01' W 093°59'0 0.0
2018-May-18 20:30N 30°01' W 093°59'0 0.0
2018-May-18 19:58N 30°01' W 093°59'0 0.0
2018-May-18 19:28N 30°01' W 093°59'0 0.0
2018-May-18 19:00N 30°01' W 093°59'0 0.0
2018-May-18 18:30N 30°01' W 093°59'0 0.0
2018-May-18 17:58N 30°01' W 093°59'0 0.0
2018-May-18 17:27N 30°01' W 093°59'0 0.0
2018-May-18 17:01N 30°01' W 093°59'0 0.0
2018-May-18 16:28N 30°01' W 093°59'0 0.0
2018-May-18 15:58N 30°01' W 093°59'0 0.0
2018-May-18 15:28N 30°01' W 093°59'0 0.0
2018-May-18 15:00N 30°01' W 093°59'0 0.7
2018-May-18 14:30N 30°01' W 093°59'0 0.0
2018-May-18 13:57N 30°01' W 093°59'0 0.3
2018-May-18 13:30N 30°01' W 093°59'0 0.3
2018-May-18 12:48N 30°01' W 093°59'0 0.0
2018-May-18 12:30N 30°01' W 093°59'0 0.0
2018-May-18 12:00N 30°01' W 093°59'0 0.0
2018-May-18 11:29N 30°01' W 093°59'0 0.0
2018-May-18 11:00N 30°01' W 093°59'0 0.0
2018-May-18 10:30N 30°01' W 093°59'0 0.0
2018-May-18 09:59N 30°01' W 093°59'0 0.0
2018-May-18 09:30N 30°01' W 093°59'0 0.0
2018-May-18 08:59N 30°01' W 093°59'0 0.0
2018-May-18 08:26N 30°01' W 093°59'0 0.0
2018-May-18 07:59N 30°01' W 093°59'0 0.0
2018-May-18 07:30N 30°01' W 093°59'0 0.0
2018-May-18 07:00N 30°01' W 093°59'0 0.0
2018-May-18 06:29N 30°01' W 093°59'0 0.0
2018-May-18 05:59N 30°01' W 093°59'0 0.0
2018-May-18 05:30N 30°01' W 093°59'0 0.0
2018-May-18 04:59N 30°01' W 093°59'0 0.0
2018-May-18 04:29N 30°01' W 093°59'0 0.0
2018-May-18 03:59N 30°01' W 093°59'0 0.0
2018-May-18 03:30N 30°01' W 093°59'0 0.0
2018-May-18 02:56N 30°01' W 093°59'0 0.0
2018-May-18 02:29N 30°01' W 093°59'0 0.0
2018-May-18 01:59N 30°01' W 093°59'0 0.0
2018-May-18 01:26N 30°01' W 093°59'0 0.0
2018-May-18 00:59N 30°01' W 093°59'0 0.0
2018-May-18 00:29N 30°01' W 093°59'0 0.0
2018-May-17 23:59N 30°01' W 093°59'0 0.0
2018-May-17 23:29N 30°01' W 093°59'0 0.0
2018-May-17 22:59N 30°01' W 093°59'0 0.0
2018-May-17 22:30N 30°01' W 093°59'0 0.0
2018-May-17 21:59N 30°01' W 093°59'0 0.0
2018-May-17 21:29N 30°01' W 093°59'0 0.0
2018-May-17 20:59N 30°01' W 093°59'0 0.0
2018-May-17 20:29N 30°01' W 093°59'0 0.8
2018-May-17 20:00N 30°01' W 093°59'0 0.0
2018-May-17 19:30N 30°01' W 093°59'0 0.0
2018-May-17 19:00N 30°01' W 093°59'0 0.8
2018-May-17 18:30N 30°01' W 093°59'0 0.0
2018-May-17 18:00N 30°01' W 093°59'0 0.0
2018-May-17 17:30N 30°01' W 093°59'0 0.0
2018-May-17 17:00N 30°01' W 093°59'0 0.0
2018-May-17 16:30N 30°01' W 093°59'0 0.0
2018-May-17 16:00N 30°01' W 093°59'0 0.0
2018-May-17 15:30N 30°01' W 093°59'0 0.0
2018-May-17 15:00N 30°01' W 093°59'0 0.0
2018-May-17 14:30N 30°01' W 093°59'0 0.0
2018-May-17 14:00N 30°01' W 093°59'0 0.0
2018-May-17 13:30N 30°01' W 093°59'0 0.0
2018-May-17 13:00N 30°01' W 093°59'0 0.0
2018-May-17 12:30N 30°01' W 093°59'0 0.0
2018-May-17 12:00N 30°01' W 093°59'0 0.0
2018-May-17 11:30N 30°01' W 093°59'0 0.0
2018-May-17 11:00N 30°01' W 093°59'0 0.0
2018-May-17 10:30N 30°01' W 093°59'0 0.0
2018-May-17 10:00N 30°01' W 093°59'0 0.0
2018-May-17 09:30N 30°01' W 093°59'0 0.0
2018-May-17 09:00N 30°01' W 093°59'0 0.0
2018-May-17 08:30N 30°01' W 093°59'0 0.0
2018-May-17 08:00N 30°01' W 093°59'0 0.0
2018-May-17 07:30N 30°01' W 093°59'0 0.0
2018-May-17 07:00N 30°01' W 093°59'0 0.0
2018-May-17 06:30N 30°01' W 093°59'0 0.0
2018-May-17 06:00N 30°01' W 093°59'0 0.0
2018-May-17 05:30N 30°01' W 093°59'0 0.0
2018-May-17 05:00N 30°01' W 093°59'0 0.0
2018-May-17 04:30N 30°01' W 093°59'0 0.0
2018-May-17 04:00N 30°01' W 093°59'0 0.0
2018-May-17 03:30N 30°01' W 093°59'0 0.0
2018-May-17 03:00N 30°01' W 093°59'0 0.0
2018-May-17 02:30N 30°01' W 093°59'0 0.0
2018-May-17 02:00N 30°01' W 093°59'0 0.0
2018-May-17 01:27N 30°01' W 093°59'0 0.0
2018-May-17 01:00N 30°01' W 093°59'0 0.0
2018-May-17 00:30N 30°01' W 093°59'0 0.0
2018-May-17 00:00N 30°01' W 093°59'0 0.0
2018-May-16 23:30N 30°01' W 093°59'0 0.0
2018-May-16 23:00N 30°01' W 093°59'0 0.0
2018-May-16 22:30N 30°01' W 093°59'0 0.0
2018-May-16 22:00N 30°01' W 093°59'0 0.0
2018-May-16 21:30N 30°01' W 093°59'0 0.0
2018-May-16 21:00N 30°01' W 093°59'0 0.0
2018-May-16 20:30N 30°01' W 093°59'0 0.0
2018-May-16 20:00N 30°01' W 093°59'0 0.0
2018-May-16 19:30N 30°01' W 093°59'0 0.0
2018-May-16 19:00N 30°01' W 093°59'0 0.0
2018-May-16 18:30N 30°01' W 093°59'0 0.0
2018-May-16 18:00N 30°01' W 093°59'0 0.0
2018-May-16 17:30N 30°01' W 093°59'0 0.0
2018-May-16 17:00N 30°01' W 093°59'0 0.0
2018-May-16 16:31N 30°01' W 093°59'0 0.0
2018-May-16 16:01N 30°01' W 093°59'0 0.0
2018-May-16 15:31N 30°01' W 093°59'0 0.0
2018-May-16 15:01N 30°01' W 093°59'0 0.0
2018-May-16 14:30N 30°01' W 093°59'0 0.0
2018-May-16 14:01N 30°01' W 093°59'0 0.0
2018-May-16 13:31N 30°01' W 093°59'0 0.0
2018-May-16 13:00N 30°01' W 093°59'0 0.0
2018-May-16 12:30N 30°01' W 093°59'0 0.6
2018-May-16 12:01N 30°01' W 093°59'0 0.1
2018-May-16 11:30N 30°01' W 093°59'0 0.0
2018-May-16 11:00N 30°01' W 093°59'0 0.0
2018-May-16 10:31N 30°01' W 093°59'0 0.0
2018-May-16 10:00N 30°01' W 093°59'0 0.0
2018-May-16 09:31N 30°01' W 093°59'0 0.0
2018-May-16 09:00N 30°01' W 093°59'0 0.0
2018-May-16 08:30N 30°01' W 093°59'0 0.0
2018-May-16 08:01N 30°01' W 093°59'0 0.0
2018-May-16 07:30N 30°01' W 093°59'0 0.0
2018-May-16 07:00N 30°01' W 093°59'0 0.0
2018-May-16 06:31N 30°01' W 093°59'0 0.0
2018-May-16 06:00N 30°01' W 093°59'0 0.0
2018-May-16 05:30N 30°01' W 093°59'0 0.0
2018-May-16 05:01N 30°01' W 093°59'0 0.0
2018-May-16 04:30N 30°01' W 093°59'0 0.0
2018-May-16 04:00N 30°01' W 093°59'0 0.0
2018-May-16 03:30N 30°01' W 093°59'0 0.0
2018-May-16 03:00N 30°01' W 093°59'0 0.0
2018-May-16 02:30N 30°01' W 093°59'0 0.0
2018-May-16 02:01N 30°01' W 093°59'0 0.0
2018-May-16 01:30N 30°01' W 093°59'0 0.0
2018-May-16 01:00N 30°01' W 093°59'0 0.0
2018-May-16 00:31N 30°01' W 093°59'0 0.0
2018-May-16 00:01N 30°01' W 093°59'0 0.0
2018-May-15 23:30N 30°01' W 093°59'0 0.0
2018-May-15 23:00N 30°01' W 093°59'0 0.0
2018-May-15 22:31N 30°01' W 093°59'0 0.0
2018-May-15 22:01N 30°01' W 093°59'0 0.0
2018-May-15 21:31N 30°01' W 093°59'0 0.0
2018-May-15 21:00N 30°01' W 093°59'0 0.0
2018-May-15 20:30N 30°01' W 093°59'0 0.0
2018-May-15 20:01N 30°01' W 093°59'0 0.0
2018-May-15 19:31N 30°01' W 093°59'0 0.0
2018-May-15 19:00N 30°01' W 093°59'0 0.0
2018-May-15 18:31N 30°01' W 093°59'0 0.0
2018-May-15 18:01N 30°01' W 093°59'0 0.0
2018-May-15 17:31N 30°01' W 093°59'0 0.0
2018-May-15 17:01N 30°01' W 093°59'0 0.0
2018-May-15 16:31N 30°01' W 093°59'0 0.0
2018-May-15 16:00N 30°01' W 093°59'0 0.0
2018-May-15 15:31N 30°01' W 093°59'0 0.0
2018-May-15 15:00N 30°01' W 093°59'0 0.0
2018-May-15 14:30N 30°01' W 093°59'0 0.0
2018-May-15 14:00N 30°01' W 093°59'0 0.0
2018-May-15 13:30N 30°01' W 093°59'0 0.0
2018-May-15 13:00N 30°01' W 093°59'0 0.0
2018-May-15 12:31N 30°01' W 093°59'0 0.0
2018-May-15 12:00N 30°01' W 093°59'0 0.0
2018-May-15 11:29N 30°01' W 093°59'2 3.8
2018-May-15 11:00N 30°00' W 093°57'4 8.0
2018-May-15 10:31N 29°59' W 093°53'2 3.4
2018-May-15 10:01N 29°57' W 093°52'0 0.4
2018-May-15 09:31N 29°58' W 093°52'1 1.4
2018-May-15 09:00N 29°57' W 093°52'2 3.9
2018-May-15 08:30N 29°59' W 093°52'3 6.4
2018-May-15 08:00N 29°59' W 093°56'3 5.8
2018-May-15 07:31N 30°01' W 093°59'3 6.1
2018-May-15 07:00N 30°02' W 094°02'2 3.5
2018-May-15 06:30N 30°04' W 094°02'1 2.4
2018-May-15 06:01N 30°04' W 094°04'0 0.0
2018-May-15 05:31N 30°04' W 094°04'0 0.0
2018-May-15 05:00N 30°04' W 094°04'0 0.1
2018-May-15 04:30N 30°05' W 094°04'0 0.0
2018-May-15 04:01N 30°05' W 094°04'0 0.0
2018-May-15 03:30N 30°05' W 094°04'0 0.0
2018-May-15 03:00N 30°05' W 094°04'0 0.0
2018-May-15 02:30N 30°05' W 094°04'0 0.0
2018-May-15 02:01N 30°05' W 094°04'0 0.0
2018-May-15 01:30N 30°05' W 094°04'0 0.0
2018-May-15 01:00N 30°05' W 094°04'0 0.0
2018-May-15 00:18N 30°05' W 094°04'0 0.0
2018-May-14 23:54N 30°05' W 094°04'0 0.0
2018-May-14 23:29N 30°05' W 094°04'0 0.0
2018-May-14 22:24N 30°05' W 094°04'0 0.0
2018-May-14 21:17N 30°05' W 094°04'0 0.0
2018-May-14 20:59N 30°05' W 094°04'0 0.0
2018-May-14 20:27N 30°05' W 094°04'0 0.0
2018-May-14 20:01N 30°05' W 094°04'0 0.0
2018-May-14 19:30N 30°05' W 094°04'0 0.0
2018-May-14 19:00N 30°05' W 094°04'0 0.0
2018-May-14 18:30N 30°05' W 094°04'0 0.0
2018-May-14 18:00N 30°05' W 094°04'0 0.0
2018-May-14 17:31N 30°05' W 094°04'0 0.0
2018-May-14 17:00N 30°05' W 094°04'0 0.0
2018-May-14 16:30N 30°05' W 094°04'0 0.0
2018-May-14 15:58N 30°05' W 094°04'0 0.0
2018-May-14 15:30N 30°05' W 094°04'0 0.0
2018-May-14 15:01N 30°05' W 094°04'0 0.0
2018-May-14 14:30N 30°05' W 094°04'0 0.0
2018-May-14 14:01N 30°05' W 094°04'0 0.1
2018-May-14 13:30N 30°04' W 094°04'0 0.9
2018-May-14 13:01N 30°04' W 094°03'3 6.6
2018-May-14 12:31N 30°01' W 094°02'2 4.0
2018-May-14 12:01N 30°01' W 093°59'0 0.2
2018-May-14 11:31N 30°01' W 093°59'2 3.5
2018-May-14 11:01N 30°00' W 093°57'4 8.9
2018-May-14 10:30N 29°59' W 093°52'2 3.4
2018-May-14 10:00N 29°58' W 093°51'1 1.8
2018-May-14 09:31N 29°59' W 093°52'3 6.3
2018-May-14 09:00N 29°59' W 093°55'3 6.5
2018-May-14 08:31N 30°01' W 093°59'3 6.7
2018-May-14 08:00N 30°02' W 094°02'3 5.2
2018-May-14 07:30N 30°05' W 094°04'0 0.0
2018-May-14 07:00N 30°04' W 094°04'0 0.0
2018-May-14 06:31N 30°04' W 094°04'0 0.0
2018-May-14 06:01N 30°04' W 094°04'0 0.0
2018-May-14 05:30N 30°04' W 094°04'0 0.0
2018-May-14 05:01N 30°04' W 094°04'0 0.0
2018-May-14 04:31N 30°04' W 094°04'0 0.0
2018-May-14 04:01N 30°04' W 094°04'0 0.0
2018-May-14 03:31N 30°04' W 094°04'0 0.0
2018-May-14 03:00N 30°04' W 094°04'0 0.0
2018-May-14 02:30N 30°04' W 094°04'0 0.0
2018-May-14 02:01N 30°04' W 094°04'0 0.0
2018-May-14 01:30N 30°04' W 094°04'0 0.0
2018-May-14 01:00N 30°04' W 094°04'0 0.0
2018-May-14 00:30N 30°04' W 094°04'0 0.0
2018-May-14 00:01N 30°04' W 094°04'0 0.0
2018-May-13 23:30N 30°04' W 094°04'0 0.0
2018-May-13 23:00N 30°04' W 094°04'0 0.0
2018-May-13 22:30N 30°04' W 094°04'0 0.0
2018-May-13 22:01N 30°04' W 094°04'0 0.0
2018-May-13 21:31N 30°04' W 094°04'0 0.0
2018-May-13 21:00N 30°04' W 094°04'0 0.0
2018-May-13 20:31N 30°04' W 094°04'0 0.1
2018-May-13 20:01N 30°05' W 094°04'2 4.9
2018-May-13 19:31N 30°03' W 094°02'3 6.0
2018-May-13 19:00N 30°01' W 093°59'3 6.4
2018-May-13 18:31N 29°59' W 093°56'4 7.1
2018-May-13 18:01N 29°59' W 093°52'2 3.1
2018-May-13 17:30N 29°57' W 093°52'0 0.0
2018-May-13 17:01N 29°57' W 093°52'0 0.2
2018-May-13 16:30N 29°57' W 093°52'2 4.8
2018-May-13 16:01N 29°55' W 093°53'3 6.2
2018-May-13 15:30N 29°53' W 093°56'3 6.1
2018-May-13 15:00N 29°50' W 093°57'3 6.0
2018-May-13 14:30N 29°48' W 094°00'3 6.4
2018-May-13 14:00N 29°46' W 094°03'3 5.9
2018-May-13 13:30N 29°44' W 094°06'3 5.9
2018-May-13 13:01N 29°42' W 094°08'3 5.6
2018-May-13 12:30N 29°41' W 094°11'2 4.3
2018-May-13 12:00N 29°40' W 094°13'3 5.7
2018-May-13 11:29N 29°39' W 094°16'3 6.1
2018-May-13 11:00N 29°38' W 094°19'4 5.5
2018-May-13 10:17N 29°36' W 094°23'24 5.0
2018-May-13 05:31N 29°23' W 094°46'1 6.0
2018-May-13 05:19N 29°22' W 094°47'8 6.7
2018-May-13 04:09N 29°29' W 094°52'1 7.4
2018-May-13 03:59N 29°30' W 094°52'3 7.1
2018-May-13 03:30N 29°33' W 094°55'3 6.4
2018-May-13 03:00N 29°36' W 094°57'3 6.8
2018-May-13 02:30N 29°39' W 094°58'3 6.8
2018-May-13 02:00N 29°42' W 094°60'3 5.5
2018-May-13 01:27N 29°44' W 095°02'3 1.1
2018-May-12 22:34N 29°46' W 095°05'0 5.8
2018-May-12 22:30N 29°46' W 095°05'1 0.1
2018-May-12 12:54N 29°46' W 095°06'0 0.0
2018-May-12 12:29N 29°46' W 095°06'  

Dump ship's entire track history